sensor_id;sensor_type;location;lat;lon;timestamp;temperature;humidity
12811;DHT22;6470;47.654;7.896;2022-10-30T00:01:03;10.90;99.90
12811;DHT22;6470;47.654;7.896;2022-10-30T00:05:55;10.80;99.90
12811;DHT22;6470;47.654;7.896;2022-10-30T00:08:22;10.60;99.90
12811;DHT22;6470;47.654;7.896;2022-10-30T00:10:50;10.20;99.90
12811;DHT22;6470;47.654;7.896;2022-10-30T00:13:16;10.10;99.90
12811;DHT22;6470;47.654;7.896;2022-10-30T00:15:50;10.60;99.90
12811;DHT22;6470;47.654;7.896;2022-10-30T00:18:16;9.40;99.90
12811;DHT22;6470;47.654;7.896;2022-10-30T00:20:42;9.70;99.90
12811;DHT22;6470;47.654;7.896;2022-10-30T00:25:35;10.50;99.90
12811;DHT22;6470;47.654;7.896;2022-10-30T00:28:03;9.80;99.90
12811;DHT22;6470;47.654;7.896;2022-10-30T00:30:28;11.30;99.90
12811;DHT22;6470;47.654;7.896;2022-10-30T00:32:54;10.20;99.90
12811;DHT22;6470;47.654;7.896;2022-10-30T00:35:20;10.20;99.90
12811;DHT22;6470;47.654;7.896;2022-10-30T00:37:45;9.70;99.90
12811;DHT22;6470;47.654;7.896;2022-10-30T00:40:14;10.30;99.90
12811;DHT22;6470;47.654;7.896;2022-10-30T00:42:40;9.90;99.90
12811;DHT22;6470;47.654;7.896;2022-10-30T00:45:09;10.20;99.90
12811;DHT22;6470;47.654;7.896;2022-10-30T00:47:38;10.20;99.90
12811;DHT22;6470;47.654;7.896;2022-10-30T00:50:20;10.70;99.90
12811;DHT22;6470;47.654;7.896;2022-10-30T00:52:52;10.00;99.90
12811;DHT22;6470;47.654;7.896;2022-10-30T00:55:23;10.00;99.90
12811;DHT22;6470;47.654;7.896;2022-10-30T01:00:19;9.80;99.90
12811;DHT22;6470;47.654;7.896;2022-10-30T01:02:46;10.30;99.90
12811;DHT22;6470;47.654;7.896;2022-10-30T01:05:15;9.70;99.90
12811;DHT22;6470;47.654;7.896;2022-10-30T01:10:09;10.20;99.90
12811;DHT22;6470;47.654;7.896;2022-10-30T01:12:36;10.20;99.90
12811;DHT22;6470;47.654;7.896;2022-10-30T01:15:02;10.20;99.90
12811;DHT22;6470;47.654;7.896;2022-10-30T01:28:32;9.90;99.90
12811;DHT22;6470;47.654;7.896;2022-10-30T01:36:42;9.40;99.90
12811;DHT22;6470;47.654;7.896;2022-10-30T01:39:19;10.00;99.90
12811;DHT22;6470;47.654;7.896;2022-10-30T01:44:23;10.00;99.90
12811;DHT22;6470;47.654;7.896;2022-10-30T01:57:54;10.30;99.90
12811;DHT22;6470;47.654;7.896;2022-10-30T02:00:21;9.60;99.90
12811;DHT22;6470;47.654;7.896;2022-10-30T02:02:48;9.70;99.90
12811;DHT22;6470;47.654;7.896;2022-10-30T02:05:29;10.20;99.90
12811;DHT22;6470;47.654;7.896;2022-10-30T02:07:56;9.50;99.90
12811;DHT22;6470;47.654;7.896;2022-10-30T02:12:48;9.60;99.90
12811;DHT22;6470;47.654;7.896;2022-10-30T02:15:14;9.80;99.90
12811;DHT22;6470;47.654;7.896;2022-10-30T02:20:07;9.70;99.90
12811;DHT22;6470;47.654;7.896;2022-10-30T02:22:32;9.80;99.90
12811;DHT22;6470;47.654;7.896;2022-10-30T02:27:24;9.70;99.90
12811;DHT22;6470;47.654;7.896;2022-10-30T02:29:50;10.20;99.90
12811;DHT22;6470;47.654;7.896;2022-10-30T02:32:16;9.60;99.90
12811;DHT22;6470;47.654;7.896;2022-10-30T02:34:41;9.80;99.90
12811;DHT22;6470;47.654;7.896;2022-10-30T02:37:08;10.00;99.90
12811;DHT22;6470;47.654;7.896;2022-10-30T02:46:52;8.90;99.90
12811;DHT22;6470;47.654;7.896;2022-10-30T02:51:44;9.40;99.90
12811;DHT22;6470;47.654;7.896;2022-10-30T02:54:09;9.10;99.90
12811;DHT22;6470;47.654;7.896;2022-10-30T02:56:35;9.30;99.90
12811;DHT22;6470;47.654;7.896;2022-10-30T03:01:27;9.70;99.90
12811;DHT22;6470;47.654;7.896;2022-10-30T03:03:52;9.70;99.90
12811;DHT22;6470;47.654;7.896;2022-10-30T03:06:18;10.10;99.90
12811;DHT22;6470;47.654;7.896;2022-10-30T03:11:13;9.90;99.90
12811;DHT22;6470;47.654;7.896;2022-10-30T03:13:40;10.00;99.90
12811;DHT22;6470;47.654;7.896;2022-10-30T03:16:11;9.90;99.90
12811;DHT22;6470;47.654;7.896;2022-10-30T03:18:37;9.80;99.90
12811;DHT22;6470;47.654;7.896;2022-10-30T03:21:05;9.80;99.90
12811;DHT22;6470;47.654;7.896;2022-10-30T03:23:32;9.40;99.90
12811;DHT22;6470;47.654;7.896;2022-10-30T03:25:58;9.10;99.90
12811;DHT22;6470;47.654;7.896;2022-10-30T03:28:27;9.60;99.90
12811;DHT22;6470;47.654;7.896;2022-10-30T03:31:00;9.70;99.90
12811;DHT22;6470;47.654;7.896;2022-10-30T03:33:26;9.30;99.90
12811;DHT22;6470;47.654;7.896;2022-10-30T03:38:18;9.00;99.90
12811;DHT22;6470;47.654;7.896;2022-10-30T03:43:10;9.60;99.90
12811;DHT22;6470;47.654;7.896;2022-10-30T03:48:03;7.20;99.90
12811;DHT22;6470;47.654;7.896;2022-10-30T03:50:29;9.50;99.90
12811;DHT22;6470;47.654;7.896;2022-10-30T03:52:56;9.70;99.90
12811;DHT22;6470;47.654;7.896;2022-10-30T03:55:22;8.50;99.90
12811;DHT22;6470;47.654;7.896;2022-10-30T03:57:48;8.90;99.90
12811;DHT22;6470;47.654;7.896;2022-10-30T04:00:15;9.10;99.90
12811;DHT22;6470;47.654;7.896;2022-10-30T04:02:48;8.90;99.90
12811;DHT22;6470;47.654;7.896;2022-10-30T04:05:15;8.70;99.90
12811;DHT22;6470;47.654;7.896;2022-10-30T04:07:41;9.50;99.90
12811;DHT22;6470;47.654;7.896;2022-10-30T04:10:08;9.00;99.90
12811;DHT22;6470;47.654;7.896;2022-10-30T04:12:34;9.70;99.90
12811;DHT22;6470;47.654;7.896;2022-10-30T04:17:25;8.30;99.90
12811;DHT22;6470;47.654;7.896;2022-10-30T04:22:17;7.30;99.90
12811;DHT22;6470;47.654;7.896;2022-10-30T04:24:43;8.40;99.90
12811;DHT22;6470;47.654;7.896;2022-10-30T04:27:10;8.60;99.90
12811;DHT22;6470;47.654;7.896;2022-10-30T04:29:37;9.80;99.90
12811;DHT22;6470;47.654;7.896;2022-10-30T04:32:03;9.20;99.90
12811;DHT22;6470;47.654;7.896;2022-10-30T04:34:30;9.60;99.90
12811;DHT22;6470;47.654;7.896;2022-10-30T04:36:56;9.00;99.90
12811;DHT22;6470;47.654;7.896;2022-10-30T04:39:21;9.70;99.90
12811;DHT22;6470;47.654;7.896;2022-10-30T04:41:47;9.30;99.90
12811;DHT22;6470;47.654;7.896;2022-10-30T04:46:38;9.20;99.90
12811;DHT22;6470;47.654;7.896;2022-10-30T04:49:04;8.60;99.90
12811;DHT22;6470;47.654;7.896;2022-10-30T04:51:30;9.10;99.90
12811;DHT22;6470;47.654;7.896;2022-10-30T04:53:56;8.50;99.90
12811;DHT22;6470;47.654;7.896;2022-10-30T04:56:23;8.60;99.90
12811;DHT22;6470;47.654;7.896;2022-10-30T04:58:49;8.40;99.90
12811;DHT22;6470;47.654;7.896;2022-10-30T05:01:14;8.30;99.90
12811;DHT22;6470;47.654;7.896;2022-10-30T05:03:40;8.10;99.90
12811;DHT22;6470;47.654;7.896;2022-10-30T05:06:12;9.00;99.90
12811;DHT22;6470;47.654;7.896;2022-10-30T05:08:40;8.80;99.90
12811;DHT22;6470;47.654;7.896;2022-10-30T05:11:06;8.70;99.90
12811;DHT22;6470;47.654;7.896;2022-10-30T05:15:57;7.20;99.90
12811;DHT22;6470;47.654;7.896;2022-10-30T05:18:23;7.10;99.90
12811;DHT22;6470;47.654;7.896;2022-10-30T05:23:15;8.40;99.90
12811;DHT22;6470;47.654;7.896;2022-10-30T05:25:41;8.70;99.90
12811;DHT22;6470;47.654;7.896;2022-10-30T05:28:08;8.70;99.90
12811;DHT22;6470;47.654;7.896;2022-10-30T05:30:34;9.30;99.90
12811;DHT22;6470;47.654;7.896;2022-10-30T05:33:05;8.40;99.90
12811;DHT22;6470;47.654;7.896;2022-10-30T05:35:32;9.40;99.90
12811;DHT22;6470;47.654;7.896;2022-10-30T05:37:59;8.70;99.90
12811;DHT22;6470;47.654;7.896;2022-10-30T05:40:25;9.20;99.90
12811;DHT22;6470;47.654;7.896;2022-10-30T05:42:50;7.30;99.90
12811;DHT22;6470;47.654;7.896;2022-10-30T05:45:16;9.10;99.90
12811;DHT22;6470;47.654;7.896;2022-10-30T05:47:43;8.90;99.90
12811;DHT22;6470;47.654;7.896;2022-10-30T05:50:09;8.70;99.90
12811;DHT22;6470;47.654;7.896;2022-10-30T05:52:36;8.60;99.90
12811;DHT22;6470;47.654;7.896;2022-10-30T05:55:02;8.90;99.90
12811;DHT22;6470;47.654;7.896;2022-10-30T05:57:28;8.90;99.90
12811;DHT22;6470;47.654;7.896;2022-10-30T06:02:20;8.60;99.90
12811;DHT22;6470;47.654;7.896;2022-10-30T06:04:46;8.80;99.90
12811;DHT22;6470;47.654;7.896;2022-10-30T06:07:12;8.90;99.90
12811;DHT22;6470;47.654;7.896;2022-10-30T06:09:38;8.50;99.90
12811;DHT22;6470;47.654;7.896;2022-10-30T06:12:04;8.90;99.90
12811;DHT22;6470;47.654;7.896;2022-10-30T06:14:29;8.50;99.90
12811;DHT22;6470;47.654;7.896;2022-10-30T06:16:55;8.50;99.90
12811;DHT22;6470;47.654;7.896;2022-10-30T06:19:21;8.90;99.90
12811;DHT22;6470;47.654;7.896;2022-10-30T06:21:46;9.10;99.90
12811;DHT22;6470;47.654;7.896;2022-10-30T06:24:12;8.70;99.90
12811;DHT22;6470;47.654;7.896;2022-10-30T06:26:38;8.30;99.90
12811;DHT22;6470;47.654;7.896;2022-10-30T06:29:04;9.40;99.90
12811;DHT22;6470;47.654;7.896;2022-10-30T06:31:30;8.30;99.90
12811;DHT22;6470;47.654;7.896;2022-10-30T06:33:56;8.10;99.90
12811;DHT22;6470;47.654;7.896;2022-10-30T06:36:21;8.50;99.90
12811;DHT22;6470;47.654;7.896;2022-10-30T06:38:47;8.40;99.90
12811;DHT22;6470;47.654;7.896;2022-10-30T06:41:13;7.10;99.90
12811;DHT22;6470;47.654;7.896;2022-10-30T06:43:38;8.70;99.90
12811;DHT22;6470;47.654;7.896;2022-10-30T06:46:04;8.20;99.90
12811;DHT22;6470;47.654;7.896;2022-10-30T06:48:30;8.60;99.90
12811;DHT22;6470;47.654;7.896;2022-10-30T06:50:57;8.90;99.90
12811;DHT22;6470;47.654;7.896;2022-10-30T06:53:23;8.60;99.90
12811;DHT22;6470;47.654;7.896;2022-10-30T06:55:56;8.70;99.90
12811;DHT22;6470;47.654;7.896;2022-10-30T06:58:22;8.10;99.90
12811;DHT22;6470;47.654;7.896;2022-10-30T07:00:48;9.00;99.90
12811;DHT22;6470;47.654;7.896;2022-10-30T07:03:14;9.20;99.90
12811;DHT22;6470;47.654;7.896;2022-10-30T07:05:40;9.60;99.90
12811;DHT22;6470;47.654;7.896;2022-10-30T07:08:06;9.40;99.90
12811;DHT22;6470;47.654;7.896;2022-10-30T07:10:32;8.90;99.90
12811;DHT22;6470;47.654;7.896;2022-10-30T07:12:57;9.80;99.90
12811;DHT22;6470;47.654;7.896;2022-10-30T07:15:24;9.60;99.90
12811;DHT22;6470;47.654;7.896;2022-10-30T07:18:02;9.20;99.90
12811;DHT22;6470;47.654;7.896;2022-10-30T07:20:31;10.00;99.90
12811;DHT22;6470;47.654;7.896;2022-10-30T07:22:57;9.50;99.90
12811;DHT22;6470;47.654;7.896;2022-10-30T07:25:23;10.40;99.90
12811;DHT22;6470;47.654;7.896;2022-10-30T07:27:50;10.60;99.90
12811;DHT22;6470;47.654;7.896;2022-10-30T07:30:18;10.80;99.90
12811;DHT22;6470;47.654;7.896;2022-10-30T07:32:44;10.30;99.90
12811;DHT22;6470;47.654;7.896;2022-10-30T07:35:12;11.10;99.90
12811;DHT22;6470;47.654;7.896;2022-10-30T07:40:05;12.10;99.90
12811;DHT22;6470;47.654;7.896;2022-10-30T07:42:32;12.20;99.90
12811;DHT22;6470;47.654;7.896;2022-10-30T07:47:24;15.40;99.90
12811;DHT22;6470;47.654;7.896;2022-10-30T07:49:49;15.10;99.90
12811;DHT22;6470;47.654;7.896;2022-10-30T07:52:15;12.20;99.90
12811;DHT22;6470;47.654;7.896;2022-10-30T07:54:41;15.50;99.90
12811;DHT22;6470;47.654;7.896;2022-10-30T07:57:06;15.40;99.90
12811;DHT22;6470;47.654;7.896;2022-10-30T07:59:32;15.70;99.90
12811;DHT22;6470;47.654;7.896;2022-10-30T08:01:59;15.10;99.90
12811;DHT22;6470;47.654;7.896;2022-10-30T08:04:25;15.40;99.90
12811;DHT22;6470;47.654;7.896;2022-10-30T08:06:52;13.10;99.90
12811;DHT22;6470;47.654;7.896;2022-10-30T08:09:18;15.60;99.90
12811;DHT22;6470;47.654;7.896;2022-10-30T08:11:43;15.40;99.90
12811;DHT22;6470;47.654;7.896;2022-10-30T08:14:09;15.50;99.90
12811;DHT22;6470;47.654;7.896;2022-10-30T08:16:35;15.60;99.90
12811;DHT22;6470;47.654;7.896;2022-10-30T08:19:00;15.50;99.90
12811;DHT22;6470;47.654;7.896;2022-10-30T08:21:26;15.00;99.90
12811;DHT22;6470;47.654;7.896;2022-10-30T08:23:52;15.60;99.90
12811;DHT22;6470;47.654;7.896;2022-10-30T08:26:17;16.00;99.90
12811;DHT22;6470;47.654;7.896;2022-10-30T08:28:43;15.40;99.90
12811;DHT22;6470;47.654;7.896;2022-10-30T08:36:01;12.40;99.90
12811;DHT22;6470;47.654;7.896;2022-10-30T08:38:27;12.30;99.90
12811;DHT22;6470;47.654;7.896;2022-10-30T08:40:53;15.80;99.90
12811;DHT22;6470;47.654;7.896;2022-10-30T08:43:19;15.20;99.90
12811;DHT22;6470;47.654;7.896;2022-10-30T08:45:45;15.70;99.90
12811;DHT22;6470;47.654;7.896;2022-10-30T08:48:12;15.80;99.90
12811;DHT22;6470;47.654;7.896;2022-10-30T08:50:39;16.30;99.90
12811;DHT22;6470;47.654;7.896;2022-10-30T08:53:07;15.90;99.90
12811;DHT22;6470;47.654;7.896;2022-10-30T08:55:33;13.10;99.90
12811;DHT22;6470;47.654;7.896;2022-10-30T08:57:59;16.10;99.90
12811;DHT22;6470;47.654;7.896;2022-10-30T09:00:26;16.40;99.90
12811;DHT22;6470;47.654;7.896;2022-10-30T09:02:52;16.40;99.90
12811;DHT22;6470;47.654;7.896;2022-10-30T09:05:19;17.20;99.90
12811;DHT22;6470;47.654;7.896;2022-10-30T09:07:45;17.30;99.90
12811;DHT22;6470;47.654;7.896;2022-10-30T09:10:11;16.90;99.90
12811;DHT22;6470;47.654;7.896;2022-10-30T09:12:37;17.50;99.90
12811;DHT22;6470;47.654;7.896;2022-10-30T09:15:03;17.20;99.90
12811;DHT22;6470;47.654;7.896;2022-10-30T09:19:55;18.20;99.90
12811;DHT22;6470;47.654;7.896;2022-10-30T09:22:21;17.30;99.90
12811;DHT22;6470;47.654;7.896;2022-10-30T09:24:46;17.50;99.90
12811;DHT22;6470;47.654;7.896;2022-10-30T09:27:12;17.10;99.90
12811;DHT22;6470;47.654;7.896;2022-10-30T09:29:38;18.20;99.90
12811;DHT22;6470;47.654;7.896;2022-10-30T09:32:04;17.40;99.90
12811;DHT22;6470;47.654;7.896;2022-10-30T09:39:26;18.10;99.90
12811;DHT22;6470;47.654;7.896;2022-10-30T09:44:57;19.30;99.90
12811;DHT22;6470;47.654;7.896;2022-10-30T09:53:45;20.00;99.90
12811;DHT22;6470;47.654;7.896;2022-10-30T09:56:43;20.00;99.90
12811;DHT22;6470;47.654;7.896;2022-10-30T09:59:35;19.70;99.90
12811;DHT22;6470;47.654;7.896;2022-10-30T10:02:26;20.60;99.90
12811;DHT22;6470;47.654;7.896;2022-10-30T10:04:59;19.40;99.90
12811;DHT22;6470;47.654;7.896;2022-10-30T10:07:33;20.00;99.90
12811;DHT22;6470;47.654;7.896;2022-10-30T10:10:03;19.10;99.90
12811;DHT22;6470;47.654;7.896;2022-10-30T10:12:44;19.70;99.90
12811;DHT22;6470;47.654;7.896;2022-10-30T10:15:58;20.50;99.90
12811;DHT22;6470;47.654;7.896;2022-10-30T10:18:11;20.10;99.90
12811;DHT22;6470;47.654;7.896;2022-10-30T10:20:42;20.00;99.90
12811;DHT22;6470;47.654;7.896;2022-10-30T10:23:18;20.80;99.90
12811;DHT22;6470;47.654;7.896;2022-10-30T10:25:53;20.50;99.90
12811;DHT22;6470;47.654;7.896;2022-10-30T10:28:49;20.90;99.90
12811;DHT22;6470;47.654;7.896;2022-10-30T10:31:51;20.60;99.90
12811;DHT22;6470;47.654;7.896;2022-10-30T10:34:44;20.40;99.90
12811;DHT22;6470;47.654;7.896;2022-10-30T10:37:37;19.60;99.90
12811;DHT22;6470;47.654;7.896;2022-10-30T10:40:26;17.80;99.90
12811;DHT22;6470;47.654;7.896;2022-10-30T10:51:42;18.20;99.90
12811;DHT22;6470;47.654;7.896;2022-10-30T10:54:17;20.90;99.90
12811;DHT22;6470;47.654;7.896;2022-10-30T10:56:46;21.30;99.90
12811;DHT22;6470;47.654;7.896;2022-10-30T10:59:42;21.30;99.90
12811;DHT22;6470;47.654;7.896;2022-10-30T11:02:42;21.40;99.90
12811;DHT22;6470;47.654;7.896;2022-10-30T11:07:58;21.50;99.90
12811;DHT22;6470;47.654;7.896;2022-10-30T11:10:26;21.50;99.90
12811;DHT22;6470;47.654;7.896;2022-10-30T11:12:52;21.80;99.90
12811;DHT22;6470;47.654;7.896;2022-10-30T11:17:59;21.20;99.90
12811;DHT22;6470;47.654;7.896;2022-10-30T11:20:43;19.00;99.90
12811;DHT22;6470;47.654;7.896;2022-10-30T11:23:32;21.80;99.90
12811;DHT22;6470;47.654;7.896;2022-10-30T11:26:02;21.70;99.90
12811;DHT22;6470;47.654;7.896;2022-10-30T11:28:44;18.70;99.90
12811;DHT22;6470;47.654;7.896;2022-10-30T11:33:45;22.20;99.90
12811;DHT22;6470;47.654;7.896;2022-10-30T11:36:14;21.40;99.90
12811;DHT22;6470;47.654;7.896;2022-10-30T11:38:40;22.00;99.90
12811;DHT22;6470;47.654;7.896;2022-10-30T11:41:06;21.70;99.90
12811;DHT22;6470;47.654;7.896;2022-10-30T11:43:35;21.40;99.90
12811;DHT22;6470;47.654;7.896;2022-10-30T11:46:02;21.30;99.90
12811;DHT22;6470;47.654;7.896;2022-10-30T11:48:43;21.70;99.90
12811;DHT22;6470;47.654;7.896;2022-10-30T11:51:10;21.50;99.90
12811;DHT22;6470;47.654;7.896;2022-10-30T11:53:42;22.60;99.90
12811;DHT22;6470;47.654;7.896;2022-10-30T11:56:20;21.60;99.90
12811;DHT22;6470;47.654;7.896;2022-10-30T11:58:49;22.10;99.90
12811;DHT22;6470;47.654;7.896;2022-10-30T12:01:23;22.20;99.90
12811;DHT22;6470;47.654;7.896;2022-10-30T12:03:50;22.30;99.90
12811;DHT22;6470;47.654;7.896;2022-10-30T12:06:36;21.20;99.90
12811;DHT22;6470;47.654;7.896;2022-10-30T12:09:19;21.80;99.90
12811;DHT22;6470;47.654;7.896;2022-10-30T12:11:45;22.10;99.90
12811;DHT22;6470;47.654;7.896;2022-10-30T12:14:22;21.40;99.90
12811;DHT22;6470;47.654;7.896;2022-10-30T12:16:54;22.40;99.90
12811;DHT22;6470;47.654;7.896;2022-10-30T12:19:23;22.10;99.90
12811;DHT22;6470;47.654;7.896;2022-10-30T12:21:50;21.80;99.90
12811;DHT22;6470;47.654;7.896;2022-10-30T12:24:29;22.40;99.90
12811;DHT22;6470;47.654;7.896;2022-10-30T12:27:00;22.40;99.90
12811;DHT22;6470;47.654;7.896;2022-10-30T12:30:13;21.60;99.90
12811;DHT22;6470;47.654;7.896;2022-10-30T12:35:33;22.10;99.90
12811;DHT22;6470;47.654;7.896;2022-10-30T12:38:01;21.10;99.90
12811;DHT22;6470;47.654;7.896;2022-10-30T12:40:37;22.20;99.90
12811;DHT22;6470;47.654;7.896;2022-10-30T12:43:26;21.30;99.90
12811;DHT22;6470;47.654;7.896;2022-10-30T12:45:55;21.90;99.90
12811;DHT22;6470;47.654;7.896;2022-10-30T12:53:37;21.90;99.90
12811;DHT22;6470;47.654;7.896;2022-10-30T12:56:09;21.40;99.90
12811;DHT22;6470;47.654;7.896;2022-10-30T12:58:52;21.90;99.90
12811;DHT22;6470;47.654;7.896;2022-10-30T13:04:34;22.20;99.90
12811;DHT22;6470;47.654;7.896;2022-10-30T13:07:12;22.40;99.90
12811;DHT22;6470;47.654;7.896;2022-10-30T13:10:18;21.60;99.90
12811;DHT22;6470;47.654;7.896;2022-10-30T13:12:47;22.50;99.90
12811;DHT22;6470;47.654;7.896;2022-10-30T13:15:25;21.50;99.90
12811;DHT22;6470;47.654;7.896;2022-10-30T13:17:51;22.00;99.90
12811;DHT22;6470;47.654;7.896;2022-10-30T13:20:17;22.00;99.90
12811;DHT22;6470;47.654;7.896;2022-10-30T13:22:57;21.30;99.90
12811;DHT22;6470;47.654;7.896;2022-10-30T13:25:52;22.00;99.90
12811;DHT22;6470;47.654;7.896;2022-10-30T13:39:29;22.60;99.90
12811;DHT22;6470;47.654;7.896;2022-10-30T13:47:20;21.90;99.90
12811;DHT22;6470;47.654;7.896;2022-10-30T13:52:39;22.60;99.90
12811;DHT22;6470;47.654;7.896;2022-10-30T13:55:21;23.00;99.90
12811;DHT22;6470;47.654;7.896;2022-10-30T13:57:59;19.60;99.90
12811;DHT22;6470;47.654;7.896;2022-10-30T14:09:27;22.30;99.90
12811;DHT22;6470;47.654;7.896;2022-10-30T14:12:41;21.90;99.90
12811;DHT22;6470;47.654;7.896;2022-10-30T14:14:46;22.10;99.90
12811;DHT22;6470;47.654;7.896;2022-10-30T14:17:14;22.00;99.90
12811;DHT22;6470;47.654;7.896;2022-10-30T14:22:31;22.30;99.90
12811;DHT22;6470;47.654;7.896;2022-10-30T14:24:58;21.90;99.90
12811;DHT22;6470;47.654;7.896;2022-10-30T14:27:28;19.30;99.90
12811;DHT22;6470;47.654;7.896;2022-10-30T14:29:54;21.60;99.90
12811;DHT22;6470;47.654;7.896;2022-10-30T14:37:17;21.50;99.90
12811;DHT22;6470;47.654;7.896;2022-10-30T14:39:44;18.70;99.90
12811;DHT22;6470;47.654;7.896;2022-10-30T14:42:15;21.30;99.90
12811;DHT22;6470;47.654;7.896;2022-10-30T14:55:27;21.50;99.90
12811;DHT22;6470;47.654;7.896;2022-10-30T15:00:41;21.50;99.90
12811;DHT22;6470;47.654;7.896;2022-10-30T15:06:48;21.70;99.90
12811;DHT22;6470;47.654;7.896;2022-10-30T15:09:19;18.20;99.90
12811;DHT22;6470;47.654;7.896;2022-10-30T15:14:39;20.60;99.90
12811;DHT22;6470;47.654;7.896;2022-10-30T15:17:15;20.80;99.90
12811;DHT22;6470;47.654;7.896;2022-10-30T15:22:16;21.10;99.90
12811;DHT22;6470;47.654;7.896;2022-10-30T15:24:44;17.60;99.90
12811;DHT22;6470;47.654;7.896;2022-10-30T15:27:18;20.00;99.90
12811;DHT22;6470;47.654;7.896;2022-10-30T15:29:52;19.80;99.90
12811;DHT22;6470;47.654;7.896;2022-10-30T15:32:21;19.90;99.90
12811;DHT22;6470;47.654;7.896;2022-10-30T15:35:01;19.80;99.90
12811;DHT22;6470;47.654;7.896;2022-10-30T15:37:30;19.40;99.90
12811;DHT22;6470;47.654;7.896;2022-10-30T15:40:16;19.50;99.90
12811;DHT22;6470;47.654;7.896;2022-10-30T15:42:43;19.70;99.90
12811;DHT22;6470;47.654;7.896;2022-10-30T15:45:21;20.20;99.90
12811;DHT22;6470;47.654;7.896;2022-10-30T15:48:03;19.50;99.90
12811;DHT22;6470;47.654;7.896;2022-10-30T15:50:32;19.20;99.90
12811;DHT22;6470;47.654;7.896;2022-10-30T15:52:58;19.10;99.90
12811;DHT22;6470;47.654;7.896;2022-10-30T15:55:29;18.80;99.90
12811;DHT22;6470;47.654;7.896;2022-10-30T15:57:58;15.60;99.90
12811;DHT22;6470;47.654;7.896;2022-10-30T16:00:30;18.30;99.90
12811;DHT22;6470;47.654;7.896;2022-10-30T16:03:16;18.30;99.90
12811;DHT22;6470;47.654;7.896;2022-10-30T16:05:42;18.40;99.90
12811;DHT22;6470;47.654;7.896;2022-10-30T16:08:14;17.80;99.90
12811;DHT22;6470;47.654;7.896;2022-10-30T16:10:43;15.10;99.90
12811;DHT22;6470;47.654;7.896;2022-10-30T16:13:15;17.70;99.90
12811;DHT22;6470;47.654;7.896;2022-10-30T16:15:43;17.40;99.90
12811;DHT22;6470;47.654;7.896;2022-10-30T16:18:20;16.80;99.90
12811;DHT22;6470;47.654;7.896;2022-10-30T16:20:55;17.30;99.90
12811;DHT22;6470;47.654;7.896;2022-10-30T16:25:54;16.90;99.90
12811;DHT22;6470;47.654;7.896;2022-10-30T16:28:34;16.80;99.90
12811;DHT22;6470;47.654;7.896;2022-10-30T16:31:09;16.70;99.90
12811;DHT22;6470;47.654;7.896;2022-10-30T16:33:40;16.10;99.90
12811;DHT22;6470;47.654;7.896;2022-10-30T16:36:10;16.80;99.90
12811;DHT22;6470;47.654;7.896;2022-10-30T16:38:39;13.70;99.90
12811;DHT22;6470;47.654;7.896;2022-10-30T16:41:06;16.40;99.90
12811;DHT22;6470;47.654;7.896;2022-10-30T16:43:33;15.90;99.90
12811;DHT22;6470;47.654;7.896;2022-10-30T16:48:43;16.50;99.90
12811;DHT22;6470;47.654;7.896;2022-10-30T16:51:14;16.20;99.90
12811;DHT22;6470;47.654;7.896;2022-10-30T16:53:51;15.90;99.90
12811;DHT22;6470;47.654;7.896;2022-10-30T16:56:29;16.30;99.90
12811;DHT22;6470;47.654;7.896;2022-10-30T16:59:07;15.90;99.90
12811;DHT22;6470;47.654;7.896;2022-10-30T17:01:37;16.30;99.90
12811;DHT22;6470;47.654;7.896;2022-10-30T17:04:03;16.20;99.90
12811;DHT22;6470;47.654;7.896;2022-10-30T17:06:39;15.60;99.90
12811;DHT22;6470;47.654;7.896;2022-10-30T17:09:08;16.20;99.90
12811;DHT22;6470;47.654;7.896;2022-10-30T17:11:40;15.70;99.90
12811;DHT22;6470;47.654;7.896;2022-10-30T17:14:20;15.70;99.90
12811;DHT22;6470;47.654;7.896;2022-10-30T17:16:57;15.80;99.90
12811;DHT22;6470;47.654;7.896;2022-10-30T17:22:02;14.90;99.90
12811;DHT22;6470;47.654;7.896;2022-10-30T17:24:36;14.80;99.90
12811;DHT22;6470;47.654;7.896;2022-10-30T17:27:05;14.70;99.90
12811;DHT22;6470;47.654;7.896;2022-10-30T17:32:24;11.70;99.90
12811;DHT22;6470;47.654;7.896;2022-10-30T17:35:01;14.60;99.90
12811;DHT22;6470;47.654;7.896;2022-10-30T17:39:56;15.20;99.90
12811;DHT22;6470;47.654;7.896;2022-10-30T17:42:22;15.90;99.90
12811;DHT22;6470;47.654;7.896;2022-10-30T17:44:48;15.80;99.90
12811;DHT22;6470;47.654;7.896;2022-10-30T17:47:18;15.80;99.90
12811;DHT22;6470;47.654;7.896;2022-10-30T17:49:45;15.90;99.90
12811;DHT22;6470;47.654;7.896;2022-10-30T17:52:12;15.60;99.90
12811;DHT22;6470;47.654;7.896;2022-10-30T18:01:57;15.60;99.90
12811;DHT22;6470;47.654;7.896;2022-10-30T18:04:22;13.70;99.90
12811;DHT22;6470;47.654;7.896;2022-10-30T18:09:14;15.50;99.90
12811;DHT22;6470;47.654;7.896;2022-10-30T18:11:40;15.60;99.90
12811;DHT22;6470;47.654;7.896;2022-10-30T18:14:05;15.50;99.90
12811;DHT22;6470;47.654;7.896;2022-10-30T18:21:24;15.80;99.90
12811;DHT22;6470;47.654;7.896;2022-10-30T18:23:53;15.00;99.90
12811;DHT22;6470;47.654;7.896;2022-10-30T18:26:22;15.30;99.90
12811;DHT22;6470;47.654;7.896;2022-10-30T18:28:48;15.40;99.90
12811;DHT22;6470;47.654;7.896;2022-10-30T18:31:16;13.60;99.90
12811;DHT22;6470;47.654;7.896;2022-10-30T18:36:16;15.50;99.90
12811;DHT22;6470;47.654;7.896;2022-10-30T18:38:42;15.50;99.90
12811;DHT22;6470;47.654;7.896;2022-10-30T18:41:41;14.70;99.90
12811;DHT22;6470;47.654;7.896;2022-10-30T18:44:16;15.50;99.90
12811;DHT22;6470;47.654;7.896;2022-10-30T18:46:42;14.90;99.90
12811;DHT22;6470;47.654;7.896;2022-10-30T18:49:08;15.80;99.90
12811;DHT22;6470;47.654;7.896;2022-10-30T18:51:34;14.90;99.90
12811;DHT22;6470;47.654;7.896;2022-10-30T18:56:28;14.70;99.90
12811;DHT22;6470;47.654;7.896;2022-10-30T18:58:55;15.10;99.90
12811;DHT22;6470;47.654;7.896;2022-10-30T19:01:21;15.80;99.90
12811;DHT22;6470;47.654;7.896;2022-10-30T19:03:47;15.60;99.90
12811;DHT22;6470;47.654;7.896;2022-10-30T19:06:16;15.10;99.90
12811;DHT22;6470;47.654;7.896;2022-10-30T19:08:42;12.60;99.90
12811;DHT22;6470;47.654;7.896;2022-10-30T19:11:15;14.90;99.90
12811;DHT22;6470;47.654;7.896;2022-10-30T19:13:40;15.20;99.90
12811;DHT22;6470;47.654;7.896;2022-10-30T19:16:10;15.60;99.90
12811;DHT22;6470;47.654;7.896;2022-10-30T19:18:36;15.50;99.90
12811;DHT22;6470;47.654;7.896;2022-10-30T19:21:02;15.70;99.90
12811;DHT22;6470;47.654;7.896;2022-10-30T19:25:54;14.80;99.90
12811;DHT22;6470;47.654;7.896;2022-10-30T19:28:20;15.50;99.90
12811;DHT22;6470;47.654;7.896;2022-10-30T19:30:47;15.00;99.90
12811;DHT22;6470;47.654;7.896;2022-10-30T19:33:22;12.40;99.90
12811;DHT22;6470;47.654;7.896;2022-10-30T19:35:56;15.10;99.90
12811;DHT22;6470;47.654;7.896;2022-10-30T19:40:49;11.40;99.90
12811;DHT22;6470;47.654;7.896;2022-10-30T19:43:15;11.90;99.90
12811;DHT22;6470;47.654;7.896;2022-10-30T19:45:40;14.80;99.90
12811;DHT22;6470;47.654;7.896;2022-10-30T19:48:17;12.50;99.90
12811;DHT22;6470;47.654;7.896;2022-10-30T19:50:43;15.40;99.90
12811;DHT22;6470;47.654;7.896;2022-10-30T19:53:10;12.50;99.90
12811;DHT22;6470;47.654;7.896;2022-10-30T19:55:38;12.40;99.90
12811;DHT22;6470;47.654;7.896;2022-10-30T19:58:06;11.80;99.90
12811;DHT22;6470;47.654;7.896;2022-10-30T20:00:35;12.10;99.90